createdAt,value
2023-02-24T00:02:02.151Z,10.82
2023-02-24T00:04:32.400Z,12.38
2023-02-24T00:06:59.974Z,10.48
2023-02-24T00:09:28.539Z,10.93
2023-02-24T00:11:59.249Z,11.68
2023-02-24T00:14:29.460Z,11.15
2023-02-24T00:16:58.614Z,12.38
2023-02-24T00:19:27.291Z,10.77
2023-02-24T00:21:56.924Z,11.07
2023-02-24T00:24:24.398Z,10.27
2023-02-24T00:27:02.103Z,12.10
2023-02-24T00:29:30.028Z,11.55
2023-02-24T00:32:03.724Z,11.07
2023-02-24T00:34:32.322Z,11.27
2023-02-24T00:36:59.593Z,11.05
2023-02-24T00:39:34.748Z,10.93
2023-02-24T00:42:06.510Z,11.43
2023-02-24T00:44:35.959Z,11.80
2023-02-24T00:47:04.968Z,11.82
2023-02-24T00:49:32.712Z,11.48
2023-02-24T00:51:59.804Z,11.52
2023-02-24T00:54:28.389Z,11.57
2023-02-24T00:56:56.128Z,11.25
2023-02-24T00:59:26.599Z,12.40
2023-02-24T01:01:54.800Z,10.70
2023-02-24T01:04:22.665Z,11.52
2023-02-24T01:06:52.702Z,10.60
2023-02-24T01:09:20.820Z,11.57
2023-02-24T01:12:18.145Z,10.55
2023-02-24T01:14:47.790Z,11.65
2023-02-24T01:17:16.500Z,12.68
2023-02-24T01:19:44.384Z,11.18
2023-02-24T01:22:15.088Z,11.65
2023-02-24T01:24:43.712Z,10.52
2023-02-24T01:27:13.210Z,10.27
2023-02-24T01:29:40.281Z,11.65
2023-02-24T01:32:08.664Z,12.30
2023-02-24T01:34:35.588Z,10.70
2023-02-24T01:37:02.464Z,12.07
2023-02-24T01:39:29.280Z,11.98
2023-02-24T01:41:56.361Z,12.60
2023-02-24T01:44:25.228Z,12.00
2023-02-24T01:46:53.713Z,11.48
2023-02-24T01:49:34.269Z,13.68
2023-02-24T01:52:09.049Z,10.77
2023-02-24T01:54:43.014Z,11.88
2023-02-24T01:57:11.295Z,10.25
2023-02-24T01:59:38.675Z,10.70
2023-02-24T02:02:08.062Z,11.80
2023-02-24T02:04:39.931Z,11.07
2023-02-24T02:07:11.012Z,12.63
2023-02-24T02:09:41.581Z,11.18
2023-02-24T02:12:09.523Z,13.70
2023-02-24T02:14:38.767Z,11.57
2023-02-24T02:17:24.789Z,12.35
2023-02-24T02:20:15.827Z,12.52
2023-02-24T02:23:13.817Z,11.70
2023-02-24T02:26:05.523Z,12.23
2023-02-24T02:28:58.153Z,11.05
2023-02-24T02:31:37.256Z,11.40
2023-02-24T02:34:19.284Z,11.82
2023-02-24T02:36:49.063Z,11.80
2023-02-24T02:39:38.720Z,11.77
2023-02-24T02:42:27.657Z,11.55
2023-02-24T02:45:21.026Z,11.55
2023-02-24T02:47:52.041Z,12.88
2023-02-24T02:50:43.345Z,12.30
2023-02-24T02:53:17.504Z,11.32
2023-02-24T02:55:53.474Z,11.27
2023-02-24T03:01:03.674Z,11.77
2023-02-24T03:03:34.284Z,12.77
2023-02-24T03:06:13.368Z,12.00
2023-02-24T03:08:43.977Z,11.60
2023-02-24T03:11:15.190Z,11.82
2023-02-24T03:13:45.586Z,12.73
2023-02-24T03:16:14.637Z,12.38
2023-02-24T03:18:51.047Z,11.48
2023-02-24T03:21:28.890Z,13.00
2023-02-24T03:23:55.972Z,12.73
2023-02-24T03:26:49.689Z,13.27
2023-02-24T03:29:24.151Z,12.10
2023-02-24T03:31:59.539Z,12.45
2023-02-24T03:34:33.618Z,11.90
2023-02-24T03:37:01.929Z,11.90
2023-02-24T03:39:28.735Z,12.77
2023-02-24T03:42:08.790Z,13.55
2023-02-24T03:44:35.521Z,12.25
2023-02-24T03:47:02.573Z,12.48
2023-02-24T03:49:29.516Z,13.70
2023-02-24T03:52:21.548Z,13.95
2023-02-24T03:54:59.213Z,12.70
2023-02-24T03:57:36.481Z,12.57
2023-02-24T04:00:26.401Z,13.57
2023-02-24T04:03:03.579Z,12.25
2023-02-24T04:05:33.443Z,13.10
2023-02-24T04:08:07.633Z,12.70
2023-02-24T04:10:52.642Z,12.38
2023-02-24T04:13:37.689Z,12.43
2023-02-24T04:16:40.087Z,12.93
2023-02-24T04:19:16.351Z,13.00
2023-02-24T04:21:45.612Z,13.18
2023-02-24T04:24:15.921Z,14.85
2023-02-24T04:26:45.328Z,14.63
2023-02-24T04:29:17.780Z,15.30
2023-02-24T04:31:53.343Z,14.07
2023-02-24T04:34:20.445Z,13.57
2023-02-24T04:36:49.696Z,13.50
2023-02-24T04:39:19.256Z,13.90
2023-02-24T04:41:49.403Z,13.25
2023-02-24T04:44:21.623Z,12.80
2023-02-24T04:46:50.290Z,13.93
2023-02-24T04:49:19.162Z,13.32
2023-02-24T04:51:46.740Z,12.68
2023-02-24T04:54:17.545Z,12.23
2023-02-24T04:56:50.763Z,12.30
2023-02-24T04:59:22.435Z,14.38
2023-02-24T05:01:53.047Z,15.63
2023-02-24T05:04:20.164Z,14.63
2023-02-24T05:06:47.389Z,15.20
2023-02-24T05:09:19.493Z,12.20
2023-02-24T05:11:51.236Z,13.70
2023-02-24T05:14:21.040Z,13.55
2023-02-24T05:16:49.393Z,13.23
2023-02-24T05:19:36.952Z,14.05
2023-02-24T05:22:04.804Z,13.25
2023-02-24T05:24:31.722Z,13.30
2023-02-24T05:26:59.375Z,12.30
2023-02-24T05:29:31.855Z,13.02
2023-02-24T05:32:02.650Z,14.02
2023-02-24T05:34:31.705Z,14.13
2023-02-24T05:37:01.599Z,14.35
2023-02-24T05:39:28.509Z,14.02
2023-02-24T05:41:57.302Z,13.05
2023-02-24T05:44:26.587Z,12.35
2023-02-24T05:46:58.830Z,13.75
2023-02-24T05:49:33.798Z,12.98
2023-02-24T05:52:07.771Z,12.73
2023-02-24T05:54:41.117Z,11.82
2023-02-24T05:57:13.761Z,14.13
2023-02-24T05:59:42.257Z,12.73
2023-02-24T06:02:12.971Z,12.77
2023-02-24T06:04:53.963Z,12.95
2023-02-24T06:07:26.817Z,13.80
2023-02-24T06:09:58.279Z,12.23
2023-02-24T06:12:30.337Z,12.40
2023-02-24T06:15:00.186Z,13.23
2023-02-24T06:17:28.411Z,12.73
2023-02-24T06:19:55.306Z,12.25
2023-02-24T06:22:25.325Z,12.80
2023-02-24T06:24:54.388Z,13.23
2023-02-24T06:27:24.757Z,12.73
2023-02-24T06:29:53.907Z,12.60
2023-02-24T06:32:24.620Z,11.68
2023-02-24T06:34:51.828Z,12.75
2023-02-24T06:37:18.636Z,13.10
2023-02-24T06:39:45.876Z,13.30
2023-02-24T06:42:13.405Z,13.13
2023-02-24T06:44:41.688Z,13.25
2023-02-24T06:47:13.155Z,14.32
2023-02-24T06:49:40.116Z,11.98
2023-02-24T06:52:07.011Z,13.43
2023-02-24T06:54:36.007Z,13.30
2023-02-24T06:57:03.988Z,14.00
2023-02-24T06:59:32.646Z,13.48
2023-02-24T07:02:02.211Z,13.02
2023-02-24T07:04:29.793Z,13.40
2023-02-24T07:07:03.561Z,14.38
2023-02-24T07:09:32.097Z,12.55
2023-02-24T07:12:02.601Z,13.57
2023-02-24T07:14:33.155Z,13.48
2023-02-24T07:17:00.206Z,13.00
2023-02-24T07:19:30.694Z,12.80
2023-02-24T07:22:03.578Z,13.90
2023-02-24T07:24:35.860Z,13.35
2023-02-24T07:27:12.136Z,14.52
2023-02-24T07:29:39.485Z,13.93
2023-02-24T07:32:08.810Z,13.50
2023-02-24T07:34:40.029Z,13.73
2023-02-24T07:37:09.060Z,12.45
2023-02-24T07:39:37.706Z,11.60
2023-02-24T07:42:07.618Z,13.05
2023-02-24T07:44:34.396Z,11.43
2023-02-24T07:47:01.319Z,13.27
2023-02-24T07:49:30.236Z,13.05
2023-02-24T07:51:58.192Z,13.32
2023-02-24T07:54:29.917Z,13.68
2023-02-24T07:56:59.230Z,13.75
2023-02-24T07:59:34.369Z,14.90
2023-02-24T08:02:04.933Z,12.15
2023-02-24T08:04:33.056Z,12.38
2023-02-24T08:07:03.442Z,12.48
2023-02-24T08:09:45.313Z,14.10
2023-02-24T08:12:21.961Z,12.85
2023-02-24T08:14:51.812Z,13.70
2023-02-24T08:17:26.913Z,12.57
2023-02-24T08:20:15.629Z,12.13
2023-02-24T08:22:44.452Z,13.43
2023-02-24T08:25:18.482Z,12.65
2023-02-24T08:28:06.857Z,12.75
2023-02-24T08:30:39.987Z,13.45
2023-02-24T08:33:10.532Z,12.65
2023-02-24T08:35:39.541Z,12.60
2023-02-24T08:38:09.784Z,13.13
2023-02-24T08:40:50.514Z,12.32
2023-02-24T08:43:29.727Z,12.23
2023-02-24T08:46:21.565Z,13.35
2023-02-24T08:48:55.624Z,14.68
2023-02-24T08:51:34.703Z,13.20
2023-02-24T08:54:10.919Z,12.07
2023-02-24T08:59:36.767Z,13.27
2023-02-24T09:02:27.295Z,12.95
2023-02-24T09:04:58.402Z,11.43
2023-02-24T09:07:35.502Z,12.63
2023-02-24T09:10:11.573Z,14.93
2023-02-24T09:15:10.012Z,13.25
2023-02-24T09:17:40.346Z,12.73
2023-02-24T09:20:36.233Z,12.48
2023-02-24T09:23:05.801Z,12.65
2023-02-24T09:25:49.659Z,12.38
2023-02-24T09:28:18.443Z,13.43
2023-02-24T09:30:55.423Z,11.90
2023-02-24T09:33:39.517Z,12.50
2023-02-24T09:36:20.030Z,13.32
2023-02-24T09:39:01.483Z,12.90
2023-02-24T09:41:57.327Z,12.52
2023-02-24T09:44:44.376Z,13.25
2023-02-24T09:47:19.958Z,12.75
2023-02-24T09:49:56.486Z,12.90
2023-02-24T09:52:39.800Z,13.18
2023-02-24T09:55:27.918Z,12.32
2023-02-24T09:58:27.030Z,12.35
2023-02-24T10:01:23.657Z,13.48
2023-02-24T10:04:20.578Z,13.88
2023-02-24T10:06:57.746Z,13.10
2023-02-24T10:09:47.605Z,12.90
2023-02-24T10:12:17.647Z,13.45
2023-02-24T10:15:16.356Z,13.23
2023-02-24T10:17:47.429Z,12.80
2023-02-24T10:20:39.192Z,12.48
2023-02-24T10:23:14.889Z,14.35
2023-02-24T10:25:56.709Z,13.10
2023-02-24T10:28:52.097Z,15.02
2023-02-24T10:31:35.583Z,12.77
2023-02-24T10:34:08.745Z,12.55
2023-02-24T10:36:36.331Z,12.93
2023-02-24T10:39:16.054Z,13.15
2023-02-24T10:41:57.414Z,13.25
2023-02-24T10:44:39.139Z,14.32
2023-02-24T10:47:13.398Z,13.10
2023-02-24T10:49:57.572Z,13.60
2023-02-24T10:52:58.507Z,14.25
2023-02-24T10:55:53.602Z,14.18
2023-02-24T10:58:28.964Z,12.75
2023-02-24T11:01:18.638Z,13.45
2023-02-24T11:04:12.403Z,13.93
2023-02-24T11:06:42.484Z,14.60
2023-02-24T11:09:28.079Z,14.85
2023-02-24T11:12:41.520Z,13.77
2023-02-24T11:15:55.966Z,14.40
2023-02-24T11:18:25.860Z,14.00
2023-02-24T11:21:01.342Z,13.35
2023-02-24T11:23:43.362Z,13.32
2023-02-24T11:26:21.113Z,13.57
2023-02-24T11:29:13.675Z,13.98
2023-02-24T11:32:22.189Z,12.82
2023-02-24T11:35:12.676Z,15.45
2023-02-24T11:37:43.683Z,13.85
2023-02-24T11:40:24.507Z,13.82
2023-02-24T11:43:03.271Z,13.27
2023-02-24T11:45:39.392Z,14.02
2023-02-24T11:50:47.202Z,13.20
2023-02-24T11:53:38.498Z,15.82
2023-02-24T11:56:23.705Z,13.82
2023-02-24T11:59:14.950Z,12.70
2023-02-24T12:02:12.821Z,13.45
2023-02-24T12:05:02.814Z,13.50
2023-02-24T12:07:39.000Z,13.73
2023-02-24T12:10:17.192Z,16.00
2023-02-24T12:13:10.782Z,15.77
2023-02-24T12:16:02.604Z,14.50
2023-02-24T12:18:40.311Z,15.82
2023-02-24T12:21:16.938Z,14.10
2023-02-24T12:23:45.754Z,14.50
2023-02-24T12:26:21.775Z,15.30
2023-02-24T12:31:42.331Z,16.73
2023-02-24T12:34:37.761Z,14.95
2023-02-24T12:37:25.215Z,15.30
2023-02-24T12:40:00.906Z,15.50
2023-02-24T12:42:46.181Z,16.42
2023-02-24T12:45:44.593Z,15.00
2023-02-24T12:48:51.447Z,17.52
2023-02-24T12:51:38.959Z,15.63
2023-02-24T12:54:17.815Z,16.40
2023-02-24T12:56:57.004Z,16.83
2023-02-24T12:59:28.453Z,16.58
2023-02-24T13:02:05.250Z,16.42
2023-02-24T13:04:35.015Z,14.70
2023-02-24T13:07:28.844Z,15.82
2023-02-24T13:10:33.216Z,15.43
2023-02-24T13:13:25.364Z,16.77
2023-02-24T13:15:57.507Z,16.60
2023-02-24T13:18:34.285Z,17.75
2023-02-24T13:21:21.968Z,16.42
2023-02-24T13:24:01.588Z,17.00
2023-02-24T13:26:32.057Z,17.50
2023-02-24T13:29:09.585Z,16.92
2023-02-24T13:31:45.340Z,16.73
2023-02-24T13:34:33.458Z,16.88
2023-02-24T13:37:00.579Z,17.38
2023-02-24T13:39:41.500Z,17.08
2023-02-24T13:42:20.509Z,17.95
2023-02-24T13:45:17.538Z,16.02
2023-02-24T13:50:20.865Z,15.90
2023-02-24T13:53:12.509Z,15.30
2023-02-24T13:55:51.016Z,17.60
2023-02-24T13:58:24.685Z,16.67
2023-02-24T14:01:10.961Z,16.95
2023-02-24T14:03:40.259Z,18.23
2023-02-24T14:06:14.883Z,18.80
2023-02-24T14:08:51.363Z,19.38
2023-02-24T14:11:18.437Z,19.05
2023-02-24T14:13:49.043Z,18.02
2023-02-24T14:16:21.724Z,18.02
2023-02-24T14:18:58.969Z,18.23
2023-02-24T14:21:28.122Z,18.88
2023-02-24T14:24:16.705Z,18.40
2023-02-24T14:26:49.459Z,17.02
2023-02-24T14:29:22.405Z,18.35
2023-02-24T14:31:52.260Z,19.42
2023-02-24T14:34:23.316Z,18.30
2023-02-24T14:36:54.058Z,18.60
2023-02-24T14:39:27.052Z,20.77
2023-02-24T14:42:04.906Z,18.83
2023-02-24T14:44:31.846Z,19.90
2023-02-24T14:47:02.441Z,17.83
2023-02-24T14:49:31.408Z,19.90
2023-02-24T14:52:48.302Z,19.02
2023-02-24T14:55:19.948Z,18.52
2023-02-24T14:57:58.381Z,19.77
2023-02-24T15:00:34.963Z,20.25
2023-02-24T15:03:32.245Z,18.63
2023-02-24T15:06:04.755Z,19.90
2023-02-24T15:08:58.397Z,19.70
2023-02-24T15:11:29.549Z,19.02
2023-02-24T15:14:00.683Z,19.08
2023-02-24T15:16:41.400Z,18.75
2023-02-24T15:19:54.766Z,18.95
2023-02-24T15:22:21.648Z,19.27
2023-02-24T15:24:49.118Z,19.27
2023-02-24T15:27:15.836Z,19.35
2023-02-24T15:29:45.060Z,19.35
2023-02-24T15:32:19.494Z,19.90
2023-02-24T15:34:48.035Z,20.02
2023-02-24T15:37:27.041Z,17.27
2023-02-24T15:40:21.811Z,19.10
2023-02-24T15:43:09.480Z,18.30
2023-02-24T15:45:39.379Z,18.13
2023-02-24T15:48:24.935Z,19.90
2023-02-24T15:50:51.800Z,18.50
2023-02-24T15:53:18.719Z,20.73
2023-02-24T15:55:45.923Z,18.25
2023-02-24T15:58:18.580Z,20.00
2023-02-24T16:00:45.988Z,19.85
2023-02-24T16:03:13.217Z,17.98
2023-02-24T16:05:40.274Z,18.33
2023-02-24T16:08:13.093Z,20.75
2023-02-24T16:10:40.770Z,18.55
2023-02-24T16:13:16.710Z,18.25
2023-02-24T16:15:44.701Z,17.80
2023-02-24T16:18:20.911Z,19.50
2023-02-24T16:20:54.301Z,18.27
2023-02-24T16:23:22.607Z,18.27
2023-02-24T16:25:51.784Z,15.77
2023-02-24T16:28:20.983Z,18.05
2023-02-24T16:30:49.907Z,16.95
2023-02-24T16:33:18.984Z,17.70
2023-02-24T16:35:45.877Z,18.85
2023-02-24T16:38:15.200Z,17.35
2023-02-24T16:40:47.115Z,17.85
2023-02-24T16:43:14.080Z,18.98
2023-02-24T16:45:41.807Z,17.88
2023-02-24T16:48:20.968Z,19.42
2023-02-24T16:50:48.382Z,18.00
2023-02-24T16:53:22.663Z,18.20
2023-02-24T16:55:50.369Z,18.50
2023-02-24T16:58:17.601Z,18.77
2023-02-24T17:00:47.662Z,20.20
2023-02-24T17:03:24.115Z,19.27
2023-02-24T17:05:51.453Z,21.00
2023-02-24T17:08:18.537Z,20.73
2023-02-24T17:10:46.254Z,20.30
2023-02-24T17:13:15.141Z,20.30
2023-02-24T17:15:42.454Z,20.67
2023-02-24T17:18:09.429Z,20.60
2023-02-24T17:20:38.289Z,19.85
2023-02-24T17:23:05.109Z,20.00
2023-02-24T17:25:32.985Z,19.65
2023-02-24T17:28:00.125Z,18.60
2023-02-24T17:30:33.217Z,20.58
2023-02-24T17:33:00.659Z,19.05
2023-02-24T17:35:28.661Z,19.52
2023-02-24T17:37:57.139Z,19.55
2023-02-24T17:40:24.075Z,19.27
2023-02-24T17:42:51.417Z,19.17
2023-02-24T17:45:18.398Z,19.85
2023-02-24T17:47:45.222Z,17.95
2023-02-24T17:50:13.173Z,19.38
2023-02-24T17:52:40.429Z,17.85
2023-02-24T17:55:08.200Z,18.88
2023-02-24T17:57:35.698Z,19.63
2023-02-24T18:00:04.859Z,18.15
2023-02-24T18:02:31.861Z,18.98
2023-02-24T18:04:58.815Z,19.88
2023-02-24T18:07:25.639Z,17.17
2023-02-24T18:09:52.488Z,19.17
2023-02-24T18:12:20.830Z,17.27
2023-02-24T18:14:56.248Z,17.83
2023-02-24T18:17:29.519Z,17.35
2023-02-24T18:19:56.571Z,17.33
2023-02-24T18:22:23.452Z,17.73
2023-02-24T18:24:50.914Z,17.10
2023-02-24T18:27:17.996Z,16.73
2023-02-24T18:29:44.996Z,17.88
2023-02-24T18:32:12.084Z,17.15
2023-02-24T18:34:39.014Z,17.10
2023-02-24T18:37:05.815Z,17.20
2023-02-24T18:39:32.652Z,15.88
2023-02-24T18:41:59.681Z,16.20
2023-02-24T18:44:26.676Z,15.77
2023-02-24T18:46:53.556Z,16.10
2023-02-24T18:49:20.359Z,15.73
2023-02-24T18:51:48.977Z,16.25
2023-02-24T18:54:16.441Z,14.52
2023-02-24T18:56:43.352Z,18.20
2023-02-24T18:59:10.153Z,15.32
2023-02-24T19:01:39.371Z,14.55
2023-02-24T19:04:08.407Z,16.20
2023-02-24T19:06:35.903Z,16.42
2023-02-24T19:09:12.177Z,15.73
2023-02-24T19:11:41.066Z,16.00
2023-02-24T19:14:11.796Z,15.52
2023-02-24T19:16:38.965Z,16.70
2023-02-24T19:19:06.139Z,16.88
2023-02-24T19:21:33.993Z,15.63
2023-02-24T19:24:08.126Z,16.08
2023-02-24T19:26:35.533Z,14.68
2023-02-24T19:29:05.353Z,15.13
2023-02-24T19:31:33.589Z,15.38
2023-02-24T19:34:03.402Z,14.13
2023-02-24T19:36:32.841Z,14.77
2023-02-24T19:38:59.926Z,14.98
2023-02-24T19:41:27.494Z,15.10
2023-02-24T19:43:55.298Z,14.63
2023-02-24T19:46:22.596Z,14.43
2023-02-24T19:48:49.562Z,13.98
2023-02-24T19:51:22.761Z,14.07
2023-02-24T19:53:53.470Z,14.10
2023-02-24T19:56:31.091Z,14.35
2023-02-24T19:58:59.869Z,12.60
2023-02-24T20:01:28.958Z,14.57
2023-02-24T20:03:58.223Z,14.05
2023-02-24T20:06:33.629Z,13.70
2023-02-24T20:09:01.280Z,14.10
2023-02-24T20:11:32.943Z,13.60
2023-02-24T20:13:59.664Z,14.30
2023-02-24T20:16:28.617Z,13.88
2023-02-24T20:18:55.713Z,14.55
2023-02-24T20:21:23.098Z,13.68
2023-02-24T20:23:50.941Z,14.60
2023-02-24T20:26:18.249Z,14.25
2023-02-24T20:28:46.561Z,13.93
2023-02-24T20:31:17.068Z,12.20
2023-02-24T20:33:44.114Z,14.10
2023-02-24T20:36:14.160Z,14.43
2023-02-24T20:38:40.945Z,14.25
2023-02-24T20:41:08.252Z,13.90
2023-02-24T20:43:35.529Z,15.15
2023-02-24T20:46:24.233Z,13.75
2023-02-24T20:48:52.610Z,12.60
2023-02-24T20:51:19.633Z,14.90
2023-02-24T20:53:56.631Z,15.13
2023-02-24T20:56:25.649Z,14.52
2023-02-24T20:58:59.912Z,15.70
2023-02-24T21:01:27.354Z,15.50
2023-02-24T21:03:54.217Z,16.30
2023-02-24T21:06:21.064Z,14.90
2023-02-24T21:08:47.900Z,15.43
2023-02-24T21:11:17.090Z,16.38
2023-02-24T21:13:46.725Z,15.75
2023-02-24T21:16:15.684Z,15.50
2023-02-24T21:18:44.245Z,14.48
2023-02-24T21:21:11.692Z,14.40
2023-02-24T21:23:39.456Z,15.05
2023-02-24T21:26:07.070Z,15.75
2023-02-24T21:28:34.504Z,15.13
2023-02-24T21:31:06.799Z,15.93
2023-02-24T21:33:33.719Z,15.18
2023-02-24T21:36:06.651Z,14.27
2023-02-24T21:38:37.823Z,14.85
2023-02-24T21:41:07.565Z,16.35
2023-02-24T21:43:34.767Z,15.70
2023-02-24T21:46:06.269Z,15.05
2023-02-24T21:48:33.952Z,15.25
2023-02-24T21:51:03.923Z,15.52
2023-02-24T21:53:33.774Z,16.02
2023-02-24T21:56:16.735Z,15.90
2023-02-24T21:58:51.045Z,15.10
2023-02-24T22:01:21.586Z,16.15
2023-02-24T22:03:48.441Z,16.50
2023-02-24T22:06:17.697Z,16.25
2023-02-24T22:08:45.640Z,16.40
2023-02-24T22:11:15.727Z,17.17
2023-02-24T22:13:44.068Z,15.55
2023-02-24T22:16:16.611Z,15.00
2023-02-24T22:18:43.883Z,16.02
2023-02-24T22:21:13.636Z,16.38
2023-02-24T22:23:40.407Z,17.20
2023-02-24T22:26:09.916Z,16.27
2023-02-24T22:28:40.706Z,16.65
2023-02-24T22:31:09.255Z,16.85
2023-02-24T22:33:40.895Z,17.67
2023-02-24T22:36:11.730Z,17.48
2023-02-24T22:38:40.090Z,17.30
2023-02-24T22:41:11.060Z,16.77
2023-02-24T22:43:38.241Z,16.95
2023-02-24T22:46:07.317Z,16.55
2023-02-24T22:48:36.060Z,16.17
2023-02-24T22:51:05.188Z,17.95
2023-02-24T22:53:34.565Z,18.20
2023-02-24T22:56:01.353Z,17.67
2023-02-24T22:58:28.272Z,17.42
2023-02-24T23:00:56.576Z,17.83
2023-02-24T23:03:30.572Z,16.92
2023-02-24T23:06:18.020Z,17.75
2023-02-24T23:08:47.014Z,18.10
2023-02-24T23:11:18.349Z,19.25
2023-02-24T23:13:47.798Z,20.20
2023-02-24T23:16:18.510Z,19.00
2023-02-24T23:18:50.696Z,18.77
2023-02-24T23:21:22.274Z,19.73
2023-02-24T23:23:50.359Z,19.60
2023-02-24T23:26:18.109Z,20.58
2023-02-24T23:28:45.114Z,19.02
2023-02-24T23:31:19.296Z,20.42
2023-02-24T23:33:46.498Z,20.42
2023-02-24T23:36:13.320Z,19.52
2023-02-24T23:38:40.065Z,21.27
2023-02-24T23:41:11.635Z,23.38
2023-02-24T23:43:39.012Z,21.27
2023-02-24T23:46:08.065Z,20.77
2023-02-24T23:48:35.576Z,20.50
2023-02-24T23:51:07.553Z,22.90
2023-02-24T23:53:45.039Z,22.52
2023-02-24T23:56:24.063Z,22.63
2023-02-24T23:58:52.770Z,21.42
